Time;durP1;ratioP1;P1;durP2;ratioP2;P2;SDS_P1;SDS_P2;PMS_P1;PMS_P2;Temp;Humidity;BMP_temperature;BMP_pressure;BME280_temperature;BME280_humidity;BME280_pressure;Samples;Min_cycle;Max_cycle;Signal;HPM_P1;HPM_P2
2022/10/17 00:00:11;;;;;;;24.10;11.43;;;;;;;0.85;100.00;100954.83;1582747;90;20920;-76
2022/10/17 00:02:42;;;;;;;25.43;11.80;;;;;;;0.81;100.00;100949.55;1553667;92;21003;-76
2022/10/17 00:05:10;;;;;;;25.75;12.07;;;;;;;0.80;100.00;100958.19;1581751;90;21118;-76
2022/10/17 00:07:42;;;;;;;29.87;12.30;;;;;;;0.76;100.00;100963.72;1554194;92;21140;-77
2022/10/17 00:10:12;;;;;;;22.73;10.20;;;;;;;0.78;100.00;100968.91;1560933;90;20990;-76
2022/10/17 00:12:44;;;;;;;24.75;11.80;;;;;;;0.79;100.00;100970.05;1554752;92;21141;-76
2022/10/17 00:15:18;;;;;;;22.77;11.00;;;;;;;0.79;100.00;100967.87;1581927;90;21464;-77
2022/10/17 00:17:45;;;;;;;26.35;11.50;;;;;;;0.80;100.00;100967.65;1582736;90;21020;-76
2022/10/17 00:20:18;;;;;;;19.23;10.93;;;;;;;0.82;100.00;100966.08;1554722;92;21612;-76
2022/10/17 00:22:50;;;;;;;23.50;10.65;;;;;;;0.82;100.00;100970.96;1582361;90;21039;-76
2022/10/17 00:25:21;;;;;;;26.42;11.35;;;;;;;0.83;100.00;100981.25;1561853;89;21040;-77
2022/10/17 00:27:50;;;;;;;23.67;11.22;;;;;;;0.81;100.00;100982.83;1587576;89;21058;-76
2022/10/17 00:30:22;;;;;;;22.48;10.50;;;;;;;0.78;100.00;100972.97;1582564;90;21011;-76
2022/10/17 00:32:52;;;;;;;25.25;10.32;;;;;;;0.73;100.00;100990.36;1554832;92;21254;-76
2022/10/17 00:35:22;;;;;;;28.32;11.20;;;;;;;0.66;100.00;100984.98;1563082;90;21549;-76
2022/10/17 00:37:58;;;;;;;22.85;10.63;;;;;;;0.60;100.00;100985.32;1583286;90;21510;-76
2022/10/17 00:40:29;;;;;;;20.20;9.45;;;;;;;0.54;100.00;100985.38;1534175;92;21064;-76
2022/10/17 00:42:59;;;;;;;20.92;10.60;;;;;;;0.46;100.00;100986.98;1554921;91;20979;-76
2022/10/17 00:45:30;;;;;;;23.92;11.55;;;;;;;0.38;100.00;100989.39;1553576;91;21198;-76
2022/10/17 00:48:04;;;;;;;19.73;10.88;;;;;;;0.29;100.00;100983.92;1581836;90;21059;-76
2022/10/17 00:50:40;;;;;;;22.67;10.80;;;;;;;0.22;100.00;100985.81;1553652;92;21030;-77
2022/10/17 00:53:08;;;;;;;21.75;11.43;;;;;;;0.14;100.00;100992.80;1583097;90;21497;-77
2022/10/17 00:55:51;;;;;;;23.32;10.32;;;;;;;0.05;100.00;100988.14;1562824;89;21561;-77
2022/10/17 00:58:19;;;;;;;21.05;10.25;;;;;;;0.00;100.00;100990.13;1564244;90;21031;-76
2022/10/17 01:00:47;;;;;;;22.10;10.50;;;;;;;-0.05;100.00;100995.88;1554897;92;20935;-77
2022/10/17 01:03:15;;;;;;;20.90;10.13;;;;;;;-0.09;100.00;100996.82;1582498;90;21035;-77
2022/10/17 01:05:49;;;;;;;24.47;11.97;;;;;;;-0.14;100.00;100997.97;1564245;90;21018;-77
2022/10/17 01:08:17;;;;;;;26.12;12.28;;;;;;;-0.17;100.00;100995.69;1535355;92;21656;-77
2022/10/17 01:10:53;;;;;;;26.15;11.38;;;;;;;-0.19;100.00;101000.47;1582249;88;21276;-77
2022/10/17 01:13:40;;;;;;;26.97;10.95;;;;;;;-0.22;100.00;101001.41;1574489;89;20964;-77
2022/10/17 01:16:15;;;;;;;23.77;10.72;;;;;;;-0.26;100.00;100999.65;1543555;92;21071;-77
2022/10/17 01:19:02;;;;;;;23.35;11.30;;;;;;;-0.28;100.00;101004.94;1578283;90;21051;-76
2022/10/17 01:21:44;;;;;;;25.50;11.38;;;;;;;-0.28;100.00;100998.20;1555083;92;20943;-76
2022/10/17 01:24:28;;;;;;;24.55;11.33;;;;;;;-0.24;100.00;100996.22;1581915;90;21713;-76
2022/10/17 01:27:14;;;;;;;24.72;11.28;;;;;;;-0.23;100.00;100991.66;1582498;90;21047;-76
2022/10/17 01:30:15;;;;;;;36.25;11.15;;;;;;;-0.23;100.00;100986.25;1581477;90;21012;-76
2022/10/17 01:32:51;;;;;;;23.38;12.30;;;;;;;-0.16;100.00;100983.02;1556042;89;21501;-76
2022/10/17 01:35:43;;;;;;;24.60;12.65;;;;;;;-0.03;100.00;100974.91;1594394;89;21100;-77
2022/10/17 01:38:20;;;;;;;28.02;12.73;;;;;;;0.08;100.00;100974.73;1576984;90;21550;-77
2022/10/17 01:41:01;;;;;;;25.92;12.53;;;;;;;0.19;100.00;100970.86;1596143;89;21002;-77
2022/10/17 01:43:45;;;;;;;28.92;12.68;;;;;;;0.30;100.00;100957.22;1605498;88;20960;-76
2022/10/17 01:46:30;;;;;;;28.47;13.85;;;;;;;0.45;100.00;100957.78;1544083;91;20976;-77
2022/10/17 01:48:57;;;;;;;29.32;13.03;;;;;;;0.56;100.00;100961.67;1573687;91;21024;-77
2022/10/17 01:51:48;;;;;;;27.70;13.40;;;;;;;0.59;100.00;100963.39;1578855;89;21140;-77
2022/10/17 01:54:46;;;;;;;35.05;14.98;;;;;;;0.61;100.00;100960.48;1594049;89;20975;-77
2022/10/17 01:57:24;;;;;;;29.18;13.03;;;;;;;0.65;100.00;100969.28;1579800;90;20932;-77
2022/10/17 02:00:02;;;;;;;25.27;13.70;;;;;;;0.70;100.00;100969.16;1608998;89;21016;-77
2022/10/17 02:02:30;;;;;;;29.60;13.68;;;;;;;0.68;100.00;100966.67;1608097;89;21066;-77
2022/10/17 02:05:03;;;;;;;25.15;13.45;;;;;;;0.64;100.00;100966.80;1550628;91;20987;-77
2022/10/17 02:07:32;;;;;;;28.10;14.15;;;;;;;0.59;100.00;100958.51;1589437;89;21027;-77
2022/10/17 02:10:03;;;;;;;29.87;13.20;;;;;;;0.54;100.00;100957.84;1535912;92;21090;-77
2022/10/17 02:12:53;;;;;;;26.70;12.68;;;;;;;0.53;100.00;100961.59;1582586;90;21034;-77
2022/10/17 02:15:46;;;;;;;27.60;13.22;;;;;;;0.50;100.00;100961.19;1534191;92;20983;-77
2022/10/17 02:18:37;;;;;;;29.15;13.55;;;;;;;0.43;100.00;100959.86;1574704;90;21304;-77
2022/10/17 02:21:26;;;;;;;24.85;12.85;;;;;;;0.32;100.00;100961.36;1537345;92;20945;-76
2022/10/17 02:24:24;;;;;;;25.88;12.88;;;;;;;0.19;100.00;100956.53;1553129;91;20944;-77
2022/10/17 02:27:02;;;;;;;24.57;12.47;;;;;;;0.11;100.00;100965.70;1575012;90;21011;-77
2022/10/17 02:29:43;;;;;;;31.20;14.40;;;;;;;0.01;100.00;100965.30;1607443;89;21027;-76
2022/10/17 02:32:21;;;;;;;21.75;11.73;;;;;;;-0.08;100.00;100970.14;1607667;89;21181;-76
2022/10/17 02:34:53;;;;;;;23.95;12.60;;;;;;;-0.17;100.00;100970.05;1607606;89;20936;-77
2022/10/17 02:37:26;;;;;;;30.30;13.30;;;;;;;-0.24;100.00;100972.45;1560397;91;21505;-77
2022/10/17 02:39:55;;;;;;;28.30;13.55;;;;;;;-0.30;100.00;100971.94;1605617;88;21034;-77
2022/10/17 02:42:22;;;;;;;28.95;13.13;;;;;;;-0.36;100.00;100969.56;1566724;89;21060;-76
2022/10/17 02:44:54;;;;;;;27.50;12.82;;;;;;;-0.41;100.00;100965.30;1582282;90;21330;-77
2022/10/17 02:47:44;;;;;;;25.55;13.43;;;;;;;-0.46;100.00;100959.70;1554379;92;20908;-76
2022/10/17 02:50:15;;;;;;;31.55;15.45;;;;;;;-0.52;100.00;100949.75;1546296;90;21028;-77
2022/10/17 02:53:01;;;;;;;30.12;15.90;;;;;;;-0.55;100.00;100940.73;1555788;90;20913;-76
2022/10/17 02:55:39;;;;;;;30.02;16.00;;;;;;;-0.47;100.00;100945.91;1565112;91;20980;-76
2022/10/17 02:58:14;;;;;;;32.15;15.45;;;;;;;-0.34;100.00;100956.17;1566248;91;22388;-76
2022/10/17 03:00:48;;;;;;;33.50;16.55;;;;;;;-0.21;100.00;100955.84;1539875;93;21052;-77
2022/10/17 03:03:28;;;;;;;36.98;15.75;;;;;;;-0.18;100.00;100954.89;1526890;92;21527;-76
2022/10/17 03:05:57;;;;;;;32.93;16.02;;;;;;;-0.12;100.00;100948.66;1545311;91;21566;-77
2022/10/17 03:08:25;;;;;;;31.15;15.93;;;;;;;-0.14;100.00;100944.51;1537574;93;20977;-76
2022/10/17 03:10:53;;;;;;;31.90;15.60;;;;;;;-0.22;100.00;100949.61;1522827;94;21594;-76
2022/10/17 03:13:22;;;;;;;37.28;18.42;;;;;;;-0.26;100.00;100955.12;1541892;92;21005;-77
2022/10/17 03:15:50;;;;;;;29.75;15.95;;;;;;;-0.29;100.00;100961.45;1537647;92;20988;-78
2022/10/17 03:18:18;;;;;;;35.78;16.40;;;;;;;-0.27;100.00;100962.91;1561206;91;21024;-77
2022/10/17 03:20:47;;;;;;;30.30;16.97;;;;;;;-0.23;100.00;100972.77;1546171;92;21027;-77
2022/10/17 03:23:13;;;;;;;36.30;16.93;;;;;;;-0.21;100.00;100967.46;1556251;91;21116;-77
2022/10/17 03:25:41;;;;;;;35.40;19.23;;;;;;;-0.21;100.00;100973.38;1539920;92;21038;-76
2022/10/17 03:28:09;;;;;;;40.67;20.72;;;;;;;-0.24;100.00;100977.84;1561217;91;21547;-76
2022/10/17 03:30:37;;;;;;;38.53;21.17;;;;;;;-0.26;100.00;100987.50;1555603;91;20999;-77
2022/10/17 03:33:04;;;;;;;37.33;20.35;;;;;;;-0.26;100.00;100996.95;1557600;92;20912;-76
2022/10/17 03:35:30;;;;;;;36.70;20.50;;;;;;;-0.23;100.00;101005.98;1552202;91;21145;-76
2022/10/17 03:37:57;;;;;;;40.03;22.58;;;;;;;-0.23;100.00;101003.27;1543125;91;21595;-75
2022/10/17 03:40:24;;;;;;;37.60;22.13;;;;;;;-0.23;100.00;101002.45;1535396;91;20883;-75
2022/10/17 03:42:51;;;;;;;35.35;19.00;;;;;;;-0.24;100.00;101000.79;1545611;92;20907;-75
2022/10/17 03:45:18;;;;;;;35.98;18.60;;;;;;;-0.24;100.00;101007.02;1538040;92;21529;-76
2022/10/17 03:47:45;;;;;;;33.78;18.77;;;;;;;-0.19;100.00;101012.62;1541898;91;21143;-75
2022/10/17 03:50:11;;;;;;;40.33;18.90;;;;;;;-0.11;100.00;101013.75;1536324;92;20982;-75
2022/10/17 03:52:38;;;;;;;35.25;18.50;;;;;;;-0.03;100.00;101014.05;1538769;92;21521;-75
2022/10/17 03:55:06;;;;;;;35.92;18.80;;;;;;;0.08;100.00;101014.72;1543629;91;20967;-74
2022/10/17 03:57:35;;;;;;;36.83;19.67;;;;;;;0.16;100.00;101013.67;1548921;92;20939;-73
2022/10/17 04:00:04;;;;;;;36.38;20.15;;;;;;;0.19;100.00;101018.12;1541925;91;21170;-73
2022/10/17 04:02:34;;;;;;;38.25;20.10;;;;;;;0.20;100.00;101017.08;1557317;92;21015;-73
2022/10/17 04:05:01;;;;;;;45.88;20.00;;;;;;;0.16;100.00;101016.37;1545148;91;20946;-76
2022/10/17 04:07:28;;;;;;;37.98;20.77;;;;;;;0.06;100.00;101029.47;1555833;91;20966;-76
2022/10/17 04:09:55;;;;;;;39.83;21.42;;;;;;;-0.02;100.00;101027.86;1563841;89;20928;-76
2022/10/17 04:12:22;;;;;;;40.83;20.85;;;;;;;-0.10;100.00;101031.61;1533299;93;21242;-76
2022/10/17 04:14:50;;;;;;;42.27;20.02;;;;;;;-0.16;100.00;101033.79;1522577;94;20952;-75
2022/10/17 04:17:17;;;;;;;40.17;19.40;;;;;;;-0.16;100.00;101041.06;1537335;93;21578;-76
2022/10/17 04:19:44;;;;;;;34.78;19.32;;;;;;;-0.21;100.00;101037.64;1522712;94;20993;-77
2022/10/17 04:22:13;;;;;;;35.08;18.20;;;;;;;-0.24;100.00;101046.67;1537190;93;21507;-76
2022/10/17 04:24:41;;;;;;;38.40;19.85;;;;;;;-0.29;100.00;101043.77;1522856;94;22133;-76
2022/10/17 04:27:10;;;;;;;42.78;19.48;;;;;;;-0.34;100.00;101045.73;1537232;92;20984;-77
2022/10/17 04:29:40;;;;;;;40.98;19.95;;;;;;;-0.40;100.00;101045.21;1522684;94;21598;-75
2022/10/17 04:32:18;;;;;;;42.35;19.10;;;;;;;-0.44;100.00;101037.22;1557357;92;21044;-71
2022/10/17 04:34:50;;;;;;;34.65;17.75;;;;;;;-0.49;100.00;101045.11;1579273;88;21040;-74
2022/10/17 04:37:18;;;;;;;35.05;18.42;;;;;;;-0.54;100.00;101034.94;1566488;90;21870;-71
2022/10/17 04:39:45;;;;;;;38.98;18.15;;;;;;;-0.58;100.00;101035.06;1566930;91;20945;-71
2022/10/17 04:42:12;;;;;;;31.35;18.02;;;;;;;-0.56;100.00;101030.78;1568265;89;20945;-72
2022/10/17 04:44:39;;;;;;;39.90;18.67;;;;;;;-0.54;100.00;101036.28;1568339;91;20985;-73
2022/10/17 04:47:07;;;;;;;31.93;17.20;;;;;;;-0.52;100.00;101043.66;1568179;91;21131;-73
2022/10/17 04:49:34;;;;;;;32.17;17.48;;;;;;;-0.53;100.00;101040.64;1568123;90;21146;-72
2022/10/17 04:52:03;;;;;;;35.05;17.05;;;;;;;-0.56;100.00;101038.36;1563482;90;21539;-72
2022/10/17 04:54:43;;;;;;;44.60;17.20;;;;;;;-0.56;100.00;101037.01;1522406;93;21023;-71
2022/10/17 04:57:12;;;;;;;38.80;16.40;;;;;;;-0.51;100.00;101035.04;1568464;89;21625;-72
2022/10/17 04:59:39;;;;;;;31.68;16.27;;;;;;;-0.46;100.00;101035.25;1584374;89;21033;-70
2022/10/17 05:02:13;;;;;;;32.60;16.62;;;;;;;-0.40;100.00;101025.81;1583303;89;21127;-71
2022/10/17 05:04:40;;;;;;;25.52;14.15;;;;;;;-0.35;100.00;101024.67;1586262;89;21503;-75
2022/10/17 05:07:07;;;;;;;39.88;15.35;;;;;;;-0.24;100.00;101025.08;1571309;91;20995;-75
2022/10/17 05:09:44;;;;;;;36.68;15.03;;;;;;;-0.08;100.00;101028.17;1571557;90;20991;-81
2022/10/17 05:12:13;;;;;;;30.00;15.32;;;;;;;0.09;100.00;101035.80;1572187;91;20908;-82
2022/10/17 05:14:43;;;;;;;27.20;14.50;;;;;;;0.20;100.00;101034.64;1571988;91;21944;-74
2022/10/17 05:17:10;;;;;;;32.85;14.68;;;;;;;0.32;100.00;101035.65;1572041;91;20971;-77
2022/10/17 05:19:38;;;;;;;29.52;14.43;;;;;;;0.40;100.00;101035.11;1576415;90;20987;-77
2022/10/17 05:22:05;;;;;;;26.42;13.65;;;;;;;0.53;100.00;101036.41;1572020;90;21008;-84
2022/10/17 05:24:31;;;;;;;24.90;13.75;;;;;;;0.68;100.00;101039.66;1539254;91;21024;-75
2022/10/17 05:26:58;;;;;;;26.45;14.68;;;;;;;0.86;100.00;101033.55;1549182;92;21133;-74
2022/10/17 05:29:25;;;;;;;33.58;13.83;;;;;;;0.98;100.00;101026.41;1546593;92;21456;-85
2022/10/17 05:31:56;;;;;;;30.23;14.28;;;;;;;1.08;100.00;101029.47;1573226;90;20892;-86
2022/10/17 05:34:24;;;;;;;33.65;15.98;;;;;;;1.17;100.00;101033.55;1579236;89;20943;-85
2022/10/17 05:36:53;;;;;;;40.63;18.37;;;;;;;1.28;100.00;101033.37;1543820;90;21454;-71
2022/10/17 05:39:26;;;;;;;33.75;15.15;;;;;;;1.43;100.00;101033.06;1543916;92;20908;-71
2022/10/17 05:42:00;;;;;;;31.00;15.68;;;;;;;1.71;100.00;101032.11;1528602;92;21105;-85
2022/10/17 05:44:28;;;;;;;34.53;15.60;;;;;;;1.91;100.00;101023.26;1551070;91;21605;-84
2022/10/17 05:47:01;;;;;;;31.95;17.02;;;;;;;2.09;100.00;101027.88;1527939;93;21081;-84
2022/10/17 05:49:33;;;;;;;31.40;14.87;;;;;;;2.26;100.00;101028.12;1539112;91;20951;-73
2022/10/17 05:52:01;;;;;;;32.40;15.97;;;;;;;2.43;100.00;101023.73;1566606;91;21143;-78
2022/10/17 05:54:37;;;;;;;30.68;16.42;;;;;;;2.59;100.00;101016.34;1540045;91;21003;-72
2022/10/17 05:57:06;;;;;;;41.75;18.45;;;;;;;2.73;100.00;101010.76;1561074;91;20976;-80
2022/10/17 05:59:39;;;;;;;40.08;19.85;;;;;;;2.87;100.00;101021.73;1551036;92;20955;-72
2022/10/17 06:02:11;;;;;;;36.95;18.60;;;;;;;3.05;100.00;101028.45;1556456;91;21608;-74
2022/10/17 06:04:44;;;;;;;34.58;18.73;;;;;;;3.25;100.00;101041.73;1548032;92;21260;-75
2022/10/17 06:07:17;;;;;;;20.48;11.75;;;;;;;3.45;100.00;101044.98;1548778;91;20944;-72
2022/10/17 06:09:47;;;;;;;25.92;12.78;;;;;;;3.61;100.00;101058.39;1546782;91;21051;-79
2022/10/17 06:12:17;;;;;;;28.55;11.63;;;;;;;3.77;100.00;101059.07;1556265;92;20951;-81
2022/10/17 06:14:45;;;;;;;22.48;11.30;;;;;;;3.93;100.00;101058.91;1566126;91;20968;-75
2022/10/17 06:17:19;;;;;;;23.00;10.28;;;;;;;4.08;100.00;101070.12;1578112;90;21188;-73
2022/10/17 06:19:49;;;;;;;29.00;13.85;;;;;;;4.21;100.00;101065.81;1576015;91;21067;-75
2022/10/17 06:22:21;;;;;;;34.45;13.43;;;;;;;4.37;99.53;101070.23;1573249;90;21101;-73
2022/10/17 06:24:52;;;;;;;28.67;12.68;;;;;;;4.50;98.80;101068.09;1544126;91;21001;-84
2022/10/17 06:27:24;;;;;;;21.00;10.82;;;;;;;4.68;98.30;101081.23;1545210;92;20992;-83
2022/10/17 06:29:56;;;;;;;22.02;10.82;;;;;;;4.82;97.01;101078.00;1570181;91;21155;-81
2022/10/17 06:32:27;;;;;;;23.32;12.25;;;;;;;5.07;96.58;101085.03;1575693;91;21474;-72
2022/10/17 06:34:55;;;;;;;22.48;9.60;;;;;;;5.59;94.66;101077.55;1606813;89;21486;-80
2022/10/17 06:37:21;;;;;;;23.57;10.53;;;;;;;6.25;90.24;101082.74;1576013;91;21130;-73
2022/10/17 06:39:49;;;;;;;20.62;9.68;;;;;;;6.87;87.48;101079.77;1550521;92;21048;-82
2022/10/17 06:42:17;;;;;;;22.32;9.95;;;;;;;7.47;85.37;101078.24;1578838;89;21074;-85
2022/10/17 06:45:06;;;;;;;15.88;9.55;;;;;;;8.05;81.97;101077.92;1573145;91;21094;-71
2022/10/17 06:47:34;;;;;;;23.92;10.68;;;;;;;8.58;77.72;101087.86;1572067;91;20971;-71
2022/10/17 06:50:03;;;;;;;21.65;10.18;;;;;;;8.94;76.16;101086.10;1568508;90;21632;-71
2022/10/17 06:52:32;;;;;;;25.00;9.88;;;;;;;9.35;74.53;101088.96;1572886;91;20988;-73
2022/10/17 06:55:09;;;;;;;19.00;9.25;;;;;;;9.71;72.15;101078.06;1523674;93;21595;-77
2022/10/17 06:57:45;;;;;;;19.05;10.13;;;;;;;10.02;69.85;101081.63;1600767;89;20995;-72
2022/10/17 07:00:25;;;;;;;20.32;10.08;;;;;;;10.32;69.11;101076.70;1599229;89;20892;-72
2022/10/17 07:02:57;;;;;;;26.55;10.75;;;;;;;10.58;67.23;101070.02;1600877;89;21054;-70
2022/10/17 07:05:24;;;;;;;22.20;10.55;;;;;;;10.82;65.20;101074.35;1600966;89;20993;-78
2022/10/17 07:07:52;;;;;;;17.20;8.70;;;;;;;10.91;64.33;101065.80;1600868;89;21189;-73
2022/10/17 07:10:21;;;;;;;18.65;8.83;;;;;;;11.02;63.69;101071.49;1600355;89;20968;-73
2022/10/17 07:12:49;;;;;;;17.65;9.20;;;;;;;11.13;63.02;101074.47;1588085;89;21024;-77
2022/10/17 07:15:16;;;;;;;18.40;8.88;;;;;;;11.32;63.28;101073.83;1598258;89;20939;-75
2022/10/17 07:17:49;;;;;;;22.42;11.35;;;;;;;11.59;62.76;101073.63;1597696;89;21459;-70
2022/10/17 07:20:18;;;;;;;19.90;9.25;;;;;;;11.89;61.47;101068.48;1576874;88;21291;-78
2022/10/17 07:22:47;;;;;;;27.73;11.15;;;;;;;12.20;58.91;101064.89;1603733;88;20972;-78
2022/10/17 07:25:20;;;;;;;21.00;9.05;;;;;;;12.31;58.31;101064.80;1597135;89;20940;-77
2022/10/17 07:27:54;;;;;;;22.67;9.90;;;;;;;12.40;57.65;101069.38;1579373;89;21676;-77
2022/10/17 07:30:22;;;;;;;17.62;8.53;;;;;;;12.52;57.50;101086.34;1575511;89;21369;-75
2022/10/17 07:33:06;;;;;;;14.53;7.90;;;;;;;12.60;57.10;101100.03;1601133;88;21034;-72
2022/10/17 07:35:39;;;;;;;17.98;7.80;;;;;;;12.75;56.40;101105.35;1606456;88;20893;-73
2022/10/17 07:38:08;;;;;;;22.40;9.25;;;;;;;12.92;56.46;101098.55;1592812;89;20941;-78
2022/10/17 07:40:39;;;;;;;23.62;8.85;;;;;;;13.07;54.57;101100.57;1594541;89;20931;-73
2022/10/17 07:43:16;;;;;;;15.53;6.58;;;;;;;13.11;55.14;101091.16;1601912;87;21523;-72
2022/10/17 07:45:48;;;;;;;15.08;5.97;;;;;;;13.23;53.58;101084.69;1590037;87;22113;-68
2022/10/17 07:48:19;;;;;;;16.75;6.85;;;;;;;13.34;52.87;101090.30;1567235;91;20969;-71
2022/10/17 07:50:46;;;;;;;19.00;6.97;;;;;;;13.38;53.05;101086.39;1568247;89;21033;-73
2022/10/17 07:53:13;;;;;;;14.00;7.60;;;;;;;13.53;53.10;101071.83;1592865;89;21669;-73
2022/10/17 07:55:41;;;;;;;22.90;7.30;;;;;;;13.74;52.53;101075.10;1608082;87;21063;-78
2022/10/17 07:58:09;;;;;;;21.62;7.55;;;;;;;13.99;52.75;101071.64;1612288;87;21658;-77
2022/10/17 08:00:36;;;;;;;16.67;7.58;;;;;;;14.36;51.66;101072.94;1608184;87;21043;-71
2022/10/17 08:03:03;;;;;;;23.07;7.47;;;;;;;14.62;50.59;101071.08;1614655;87;21466;-72
2022/10/17 08:05:30;;;;;;;13.85;5.90;;;;;;;14.84;48.94;101071.20;1586771;90;21032;-70
2022/10/17 08:07:57;;;;;;;14.80;6.62;;;;;;;14.91;48.34;101064.70;1591271;89;20987;-71
2022/10/17 08:10:28;;;;;;;10.30;5.33;;;;;;;14.96;49.09;101055.48;1606323;88;21139;-70
2022/10/17 08:12:56;;;;;;;13.30;5.40;;;;;;;15.11;47.61;101051.80;1605781;89;20928;-70
2022/10/17 08:15:24;;;;;;;15.55;5.65;;;;;;;15.17;47.23;101042.27;1604504;89;20935;-72
2022/10/17 08:17:51;;;;;;;11.18;5.25;;;;;;;15.29;47.55;101050.59;1604535;89;20988;-73
2022/10/17 08:20:19;;;;;;;8.28;4.58;;;;;;;15.42;46.66;101049.73;1603968;89;20947;-72
2022/10/17 08:22:53;;;;;;;9.78;4.75;;;;;;;15.52;46.24;101050.89;1604115;89;21171;-73
2022/10/17 08:25:20;;;;;;;11.33;4.35;;;;;;;15.59;43.72;101059.62;1609536;89;20979;-69
2022/10/17 08:27:48;;;;;;;11.70;4.60;;;;;;;15.57;43.67;101066.59;1609560;89;21014;-69
2022/10/17 08:30:15;;;;;;;11.53;5.15;;;;;;;15.63;43.60;101070.84;1595232;89;20932;-70
2022/10/17 08:32:42;;;;;;;9.28;5.17;;;;;;;15.80;43.17;101066.28;1601900;89;20912;-71
2022/10/17 08:35:09;;;;;;;8.88;4.42;;;;;;;15.97;42.96;101062.00;1597297;89;21518;-73
2022/10/17 08:37:35;;;;;;;16.60;5.53;;;;;;;16.02;41.83;101058.54;1592289;89;21530;-70
2022/10/17 08:40:03;;;;;;;10.88;4.05;;;;;;;16.03;42.32;101062.12;1608752;89;21028;-68
2022/10/17 08:42:50;;;;;;;8.03;4.03;;;;;;;16.14;42.12;101063.51;1608362;87;21540;-71
2022/10/17 08:45:44;;;;;;;12.23;6.25;;;;;;;16.27;41.91;101062.58;1605066;89;21131;-81
2022/10/17 08:48:17;;;;;;;8.60;4.75;;;;;;;16.55;42.43;101059.64;1603281;89;21365;-74
2022/10/17 08:50:56;;;;;;;16.65;6.70;;;;;;;17.01;41.08;101051.66;1593349;89;21626;-72
2022/10/17 08:53:52;;;;;;;18.35;7.53;;;;;;;17.21;40.59;101049.42;1598571;88;20948;-79
2022/10/17 08:56:23;;;;;;;6.87;4.45;;;;;;;17.35;40.32;101043.13;1603258;88;21042;-76
2022/10/17 08:58:49;;;;;;;9.48;4.90;;;;;;;17.43;39.65;101031.22;1608553;89;21019;-69
2022/10/17 09:01:43;;;;;;;9.70;4.33;;;;;;;17.50;39.59;101023.22;1608121;89;21073;-79
2022/10/17 09:05:04;;;;;;;13.35;5.58;;;;;;;17.47;38.59;101024.69;1605218;88;21027;-77
2022/10/17 09:07:51;;;;;;;10.60;4.90;;;;;;;17.46;39.25;101027.78;1583206;90;21040;-72
2022/10/17 09:10:43;;;;;;;17.45;8.00;;;;;;;17.56;38.78;101031.62;1610470;89;21058;-73
2022/10/17 09:13:44;;;;;;;17.98;6.30;;;;;;;17.59;38.63;101031.55;1611019;88;20986;-76
2022/10/17 09:16:20;;;;;;;8.90;4.80;;;;;;;17.72;38.36;101034.77;1610355;89;21580;-76
2022/10/17 09:19:24;;;;;;;12.93;6.30;;;;;;;17.88;38.38;101022.58;1585072;90;20999;-76
2022/10/17 09:22:05;;;;;;;17.02;5.33;;;;;;;17.98;37.86;101029.16;1548402;90;25250;-72
2022/10/17 09:24:57;;;;;;;9.30;4.70;;;;;;;18.07;37.47;101031.34;1584737;88;21133;-78
2022/10/17 09:27:41;;;;;;;11.53;3.87;;;;;;;18.08;36.95;101037.14;1576814;90;21119;-74
2022/10/17 09:30:45;;;;;;;8.20;3.85;;;;;;;18.12;36.81;101042.29;1579185;88;21527;-70
2022/10/17 09:33:27;;;;;;;7.58;3.90;;;;;;;18.21;36.73;101040.88;1570612;89;20987;-69
2022/10/17 09:35:57;;;;;;;7.20;3.55;;;;;;;18.38;35.73;101035.27;1578120;90;21590;-69
2022/10/17 09:38:42;;;;;;;10.00;4.33;;;;;;;18.52;35.88;101035.03;1554034;91;21618;-83
2022/10/17 09:41:19;;;;;;;8.73;4.33;;;;;;;18.73;36.03;101030.39;1558200;91;20995;-71
2022/10/17 09:43:47;;;;;;;8.85;4.25;;;;;;;18.95;35.00;101040.44;1604130;88;21310;-73
2022/10/17 09:46:30;;;;;;;14.00;4.10;;;;;;;19.06;35.17;101034.73;1583144;89;21594;-76
2022/10/17 09:49:04;;;;;;;13.95;5.30;;;;;;;19.21;34.80;101038.28;1604372;89;21444;-75
2022/10/17 09:51:37;;;;;;;17.25;5.50;;;;;;;19.25;34.62;101032.28;1605091;89;20979;-75
2022/10/17 09:54:22;;;;;;;7.28;3.72;;;;;;;19.40;35.06;101033.08;1576299;89;21467;-77
2022/10/17 09:57:08;;;;;;;14.50;5.00;;;;;;;19.67;33.38;101026.72;1601674;89;21275;-72
2022/10/17 09:59:56;;;;;;;13.45;5.30;;;;;;;19.63;32.97;101020.23;1597692;89;21020;-75
2022/10/17 10:02:24;;;;;;;9.48;4.03;;;;;;;19.44;33.03;101016.50;1604074;89;20965;-84
2022/10/17 10:05:02;;;;;;;12.30;3.75;;;;;;;19.32;33.65;101026.98;1590993;88;20983;-74
2022/10/17 10:07:32;;;;;;;10.65;3.80;;;;;;;19.31;33.03;101027.33;1575666;91;21549;-75
2022/10/17 10:10:05;;;;;;;7.10;4.22;;;;;;;19.40;33.91;101022.52;1568443;91;21599;-72
2022/10/17 10:12:37;;;;;;;9.98;4.75;;;;;;;19.59;33.19;101021.48;1548108;92;20933;-79
2022/10/17 10:15:36;;;;;;;10.32;4.55;;;;;;;19.71;32.38;101020.13;1549727;90;21485;-78
2022/10/17 10:18:31;;;;;;;8.43;4.15;;;;;;;19.68;32.33;101023.59;1576014;88;20976;-76
2022/10/17 10:21:14;;;;;;;9.95;4.00;;;;;;;19.67;32.95;101012.22;1558969;91;20980;-75
2022/10/17 10:23:45;;;;;;;8.08;4.05;;;;;;;19.83;31.93;101013.79;1560367;90;21126;-75
2022/10/17 10:26:28;;;;;;;8.90;3.70;;;;;;;19.78;32.41;101014.00;1559281;91;20941;-73
2022/10/17 10:29:04;;;;;;;10.98;3.92;;;;;;;19.82;32.53;101005.77;1560303;90;21456;-75
2022/10/17 10:31:38;;;;;;;6.70;3.30;;;;;;;19.92;32.24;101013.13;1534371;92;20992;-74
2022/10/17 10:34:25;;;;;;;7.75;4.03;;;;;;;19.87;32.26;101011.95;1539758;91;20973;-73
2022/10/17 10:37:00;;;;;;;9.70;3.45;;;;;;;19.72;31.91;101014.79;1556886;91;21363;-74
2022/10/17 10:39:49;;;;;;;9.08;3.17;;;;;;;19.67;32.04;101017.78;1557409;92;20996;-74
2022/10/17 10:42:25;;;;;;;10.60;3.50;;;;;;;19.87;32.43;101016.70;1536353;92;20948;-74
2022/10/17 10:44:56;;;;;;;7.05;3.35;;;;;;;20.14;32.00;101020.28;1556654;92;20929;-74
2022/10/17 10:47:25;;;;;;;8.05;3.55;;;;;;;20.37;31.79;101013.11;1559844;91;20937;-73
2022/10/17 10:50:13;;;;;;;10.65;3.72;;;;;;;20.60;31.64;101015.48;1561377;90;21175;-78
2022/10/17 10:53:15;;;;;;;9.30;4.35;;;;;;;20.73;31.17;101015.73;1554273;92;20906;-76
2022/10/17 10:56:01;;;;;;;8.15;3.70;;;;;;;20.67;30.87;101010.14;1525297;92;21044;-74
2022/10/17 10:59:04;;;;;;;15.13;4.33;;;;;;;20.45;31.07;101015.59;1564889;91;20984;-74
2022/10/17 11:01:57;;;;;;;12.23;3.83;;;;;;;20.48;32.10;101014.89;1570835;91;26991;-74
2022/10/17 11:04:45;;;;;;;9.80;3.62;;;;;;;20.75;31.58;101016.20;1582289;89;21358;-75
2022/10/17 11:07:32;;;;;;;7.50;3.52;;;;;;;20.90;31.11;101013.25;1594911;88;21074;-79
2022/10/17 11:10:24;;;;;;;6.62;3.25;;;;;;;20.85;30.41;101016.28;1583254;88;21529;-76
2022/10/17 11:12:58;;;;;;;14.83;4.83;;;;;;;20.65;30.99;101002.13;1584862;89;21007;-73
2022/10/17 11:15:42;;;;;;;9.95;3.52;;;;;;;20.56;31.68;101004.80;1583968;90;20998;-74
2022/10/17 11:18:17;;;;;;;8.03;3.65;;;;;;;20.65;31.70;100999.91;1578213;90;21171;-74
2022/10/17 11:21:01;;;;;;;11.20;3.70;;;;;;;21.03;31.38;100998.94;1575053;89;20989;-73
2022/10/17 11:23:48;;;;;;;9.05;3.22;;;;;;;21.40;29.87;101005.85;1567109;90;21082;-77
2022/10/17 11:26:31;;;;;;;8.65;3.83;;;;;;;21.60;28.62;101010.45;1562587;91;21004;-73
2022/10/17 11:29:02;;;;;;;7.17;3.20;;;;;;;21.59;28.51;101003.23;1560683;92;21080;-73
2022/10/17 11:31:34;;;;;;;7.58;3.58;;;;;;;21.50;28.68;101002.56;1560001;92;21121;-76
2022/10/17 11:34:21;;;;;;;7.67;3.90;;;;;;;21.49;27.98;100987.55;1558840;92;20996;-73
2022/10/17 11:36:51;;;;;;;9.05;3.52;;;;;;;21.45;28.48;100988.84;1585786;90;20949;-77
2022/10/17 11:39:23;;;;;;;12.03;3.60;;;;;;;21.60;28.78;100985.30;1588461;90;21067;-76
2022/10/17 11:42:00;;;;;;;6.55;3.17;;;;;;;21.74;28.58;100999.68;1578555;88;21015;-71
2022/10/17 11:44:40;;;;;;;23.12;3.80;;;;;;;21.87;28.63;100992.64;1583295;89;21145;-75